TimeCDT,TemperatureF,Dew PointF,Humidity,Sea Level PressureIn,VisibilityMPH,Wind Direction,Wind SpeedMPH,Gust SpeedMPH,PrecipitationIn,Events,Conditions,WindDirDegrees,DateUTC
12:52 AM,54.0,28.9,38,30.01,10.0,South,16.1,-,0.00,,Clear,170,2013-04-26 05:52:00
1:52 AM,51.1,30.0,44,30.01,10.0,SSE,12.7,-,N/A,,Clear,160,2013-04-26 06:52:00
2:52 AM,48.9,30.0,48,30.00,10.0,SSE,11.5,-,N/A,,Clear,150,2013-04-26 07:52:00
3:52 AM,50.0,33.1,52,29.99,10.0,SSE,10.4,-,N/A,,Mostly Cloudy,150,2013-04-26 08:52:00
4:52 AM,50.0,35.1,57,29.99,10.0,SSE,10.4,-,N/A,,Overcast,160,2013-04-26 09:52:00
5:52 AM,48.9,37.9,66,30.00,8.0,South,11.5,-,0.00,Rain,Light Rain,170,2013-04-26 10:52:00
6:52 AM,46.9,39.9,77,29.96,10.0,SE,12.7,-,0.01,,Scattered Clouds,140,2013-04-26 11:52:00
7:52 AM,48.0,42.1,80,29.98,10.0,South,10.4,-,N/A,,Scattered Clouds,180,2013-04-26 12:52:00
8:52 AM,53.1,45.0,74,29.98,10.0,South,12.7,-,N/A,,Clear,170,2013-04-26 13:52:00
9:52 AM,57.9,44.1,60,29.98,10.0,South,13.8,-,N/A,,Clear,170,2013-04-26 14:52:00
10:52 AM,64.0,44.1,48,29.96,10.0,South,16.1,-,N/A,,Clear,190,2013-04-26 15:52:00
11:52 AM,66.9,45.0,45,29.98,10.0,South,12.7,-,N/A,,Mostly Cloudy,170,2013-04-26 16:52:00
12:52 PM,66.0,44.1,45,29.98,10.0,South,9.2,-,N/A,,Overcast,180,2013-04-26 17:52:00
1:52 PM,63.0,45.0,52,29.98,10.0,SE,10.4,-,N/A,,Overcast,130,2013-04-26 18:52:00
2:52 PM,54.0,48.9,83,30.02,6.0,East,11.5,-,0.00,Rain-Thunderstorm,Light Rain,100,2013-04-26 19:52:00
3:29 PM,51.8,48.2,88,30.05,2.5,SE,8.1,-,0.09,Rain-Thunderstorm,Rain,130,2013-04-26 20:29:00
3:42 PM,51.8,48.2,88,30.06,2.5,ESE,6.9,-,0.11,Rain,Light Rain,110,2013-04-26 20:42:00
3:52 PM,52.0,50.0,93,30.05,2.5,ESE,8.1,-,0.14,Rain,Rain,120,2013-04-26 20:52:00
4:36 PM,51.8,50.0,94,30.06,2.0,ESE,5.8,-,0.16,Rain,Rain,110,2013-04-26 21:36:00
4:48 PM,51.8,50.0,94,30.07,2.0,East,4.6,-,0.19,Rain,Rain,80,2013-04-26 21:48:00
4:52 PM,51.1,50.0,96,30.05,2.0,East,4.6,-,0.20,Rain,Rain,100,2013-04-26 21:52:00
5:28 PM,51.8,48.2,88,30.06,1.8,SE,12.7,-,0.12,Rain,Rain,130,2013-04-26 22:28:00
5:44 PM,51.8,48.2,88,30.04,3.0,Calm,Calm,-,0.16,Rain,Light Rain,0,2013-04-26 22:44:00
5:52 PM,51.1,48.9,92,30.05,4.0,NE,4.6,-,0.16,,Overcast,50,2013-04-26 22:52:00
5:59 PM,51.8,50.0,94,30.06,4.0,East,8.1,-,N/A,,Overcast,90,2013-04-26 22:59:00
6:52 PM,51.1,48.9,92,30.07,3.0,ESE,4.6,-,N/A,,Overcast,120,2013-04-26 23:52:00
7:11 PM,51.8,48.2,88,30.08,2.0,ESE,6.9,-,N/A,,Overcast,110,2013-04-27 00:11:00
7:28 PM,50.0,48.2,94,30.07,1.2,East,5.8,-,N/A,,Overcast,80,2013-04-27 00:28:00
7:36 PM,50.0,48.2,94,30.08,0.5,East,6.9,-,N/A,Fog,Fog,100,2013-04-27 00:36:00
7:47 PM,50.0,48.2,94,30.08,1.5,East,8.1,-,N/A,,Overcast,90,2013-04-27 00:47:00
7:52 PM,50.0,48.9,96,30.08,1.8,East,5.8,-,N/A,,Overcast,90,2013-04-27 00:52:00
7:56 PM,50.0,48.2,94,30.08,0.8,East,5.8,-,N/A,,Overcast,90,2013-04-27 00:56:00
8:28 PM,50.0,48.2,94,30.09,0.2,ENE,8.1,-,N/A,Fog,Fog,60,2013-04-27 01:28:00
8:35 PM,50.0,48.2,94,30.09,0.8,ENE,9.2,-,N/A,,Mist,60,2013-04-27 01:35:00
8:47 PM,50.0,48.2,94,30.10,1.0,NE,5.8,-,N/A,,Mist,50,2013-04-27 01:47:00
8:52 PM,50.0,48.0,93,30.09,1.0,NE,3.5,-,N/A,,Mist,50,2013-04-27 01:52:00
9:25 PM,50.0,48.2,94,30.13,0.8,North,5.8,-,N/A,,Mist,10,2013-04-27 02:25:00
9:33 PM,50.0,48.2,94,30.14,1.5,NE,5.8,-,N/A,,Overcast,40,2013-04-27 02:33:00
9:43 PM,50.0,48.2,94,30.15,1.0,NNE,6.9,-,N/A,,Mist,30,2013-04-27 02:43:00
9:52 PM,48.9,48.0,97,30.13,1.0,NE,5.8,-,N/A,,Mist,50,2013-04-27 02:52:00
9:59 PM,48.2,48.2,100,30.16,0.5,NE,4.6,-,N/A,Fog,Fog,50,2013-04-27 02:59:00
10:14 PM,48.2,48.2,100,30.16,0.2,NE,4.6,-,N/A,Fog,Fog,50,2013-04-27 03:14:00
10:45 PM,48.2,48.2,100,30.16,1.0,NE,3.5,-,N/A,,Mist,40,2013-04-27 03:45:00
10:52 PM,48.9,48.0,97,30.13,0.8,NE,4.6,-,N/A,,Mist,40,2013-04-27 03:52:00
11:21 PM,48.2,46.4,93,30.16,0.2,NNE,3.5,-,N/A,Fog,Fog,30,2013-04-27 04:21:00
11:52 PM,48.0,46.9,96,30.13,0.2,North,6.9,-,N/A,Fog,Fog,10,2013-04-27 04:52:00